Time;durP1;ratioP1;P1;durP2;ratioP2;P2;SDS_P1;SDS_P2;PMS_P1;PMS_P2;Temp;Humidity;BMP_temperature;BMP_pressure;BME280_temperature;BME280_humidity;BME280_pressure;Samples;Min_cycle;Max_cycle;Signal;HPM_P1;HPM_P2
2022/08/06 00:00:34;;;;;;;;;;;15.10;96.20;;;;;;8467797;28;19924;-70
2022/08/06 00:04:36;;;;;;;;;;;15.10;96.30;;;;;;8467417;28;19919;-70
2022/08/06 00:08:38;;;;;;;;;;;15.00;96.30;;;;;;8463982;28;19927;-70
2022/08/06 00:12:39;;;;;;;;;;;15.00;96.40;;;;;;8447780;28;19924;-70
2022/08/06 00:16:41;;;;;;;;;;;14.90;96.40;;;;;;8465707;28;19919;-70
2022/08/06 00:20:43;;;;;;;;;;;14.90;96.40;;;;;;8467008;28;19927;-70
2022/08/06 00:24:44;;;;;;;;;;;14.90;96.50;;;;;;8444063;28;19919;-70
2022/08/06 00:28:46;;;;;;;;;;;14.80;96.50;;;;;;8457625;28;19920;-70
2022/08/06 00:32:48;;;;;;;;;;;14.80;96.50;;;;;;8466385;28;20290;-70
2022/08/06 00:36:52;;;;;;;;;;;14.70;96.50;;;;;;8443771;28;19965;-70
2022/08/06 00:40:53;;;;;;;;;;;14.70;96.50;;;;;;8454397;28;19919;-70
2022/08/06 00:45:00;;;;;;;;;;;14.60;96.50;;;;;;8466674;28;19924;-70
2022/08/06 00:49:02;;;;;;;;;;;14.60;96.60;;;;;;8463393;28;20355;-70
2022/08/06 00:53:12;;;;;;;;;;;14.50;96.60;;;;;;8446360;28;19919;-70
2022/08/06 00:57:14;;;;;;;;;;;14.50;96.60;;;;;;8459588;28;19921;-70
2022/08/06 01:01:16;;;;;;;;;;;14.40;96.50;;;;;;8464906;28;19926;-70
2022/08/06 01:05:18;;;;;;;;;;;14.40;96.60;;;;;;8465574;28;19926;-70
2022/08/06 01:09:40;;;;;;;;;;;14.30;96.60;;;;;;8464744;28;19958;-70
2022/08/06 01:13:46;;;;;;;;;;;14.30;96.70;;;;;;8465029;28;20291;-70
2022/08/06 01:18:11;;;;;;;;;;;14.20;96.70;;;;;;8463651;28;19963;-70
2022/08/06 01:22:31;;;;;;;;;;;14.20;96.70;;;;;;8464385;28;19920;-70
2022/08/06 01:26:36;;;;;;;;;;;14.10;96.70;;;;;;8463009;28;19925;-70
2022/08/06 01:30:46;;;;;;;;;;;14.10;96.70;;;;;;8457102;28;19927;-70
2022/08/06 01:34:50;;;;;;;;;;;14.00;96.60;;;;;;8463994;28;19919;-70
2022/08/06 01:38:55;;;;;;;;;;;14.00;96.70;;;;;;8437213;28;19920;-70
2022/08/06 01:43:01;;;;;;;;;;;14.00;96.70;;;;;;8463744;28;19970;-70
2022/08/06 01:47:09;;;;;;;;;;;13.90;96.70;;;;;;8438652;28;19919;-70
2022/08/06 01:51:17;;;;;;;;;;;13.90;96.70;;;;;;8442670;28;19926;-70
2022/08/06 01:55:40;;;;;;;;;;;13.80;96.70;;;;;;8460680;28;19966;-70
2022/08/06 01:59:57;;;;;;;;;;;13.80;96.80;;;;;;8463365;28;20342;-70
2022/08/06 02:04:00;;;;;;;;;;;13.80;96.80;;;;;;8462379;28;19946;-70
2022/08/06 02:08:03;;;;;;;;;;;13.70;96.80;;;;;;8462351;28;20359;-70
2022/08/06 02:12:25;;;;;;;;;;;13.70;96.80;;;;;;8463806;28;19927;-70
2022/08/06 02:16:31;;;;;;;;;;;13.70;96.80;;;;;;8443519;28;20294;-70
2022/08/06 02:20:41;;;;;;;;;;;13.60;96.80;;;;;;8463270;28;19920;-70
2022/08/06 02:24:49;;;;;;;;;;;13.60;96.80;;;;;;8435913;28;20324;-70
2022/08/06 02:28:51;;;;;;;;;;;13.50;96.80;;;;;;8461692;28;19923;-70
2022/08/06 02:32:53;;;;;;;;;;;13.50;96.80;;;;;;8463193;28;19920;-70
2022/08/06 02:37:06;;;;;;;;;;;13.40;96.80;;;;;;8435627;28;19926;-70
2022/08/06 02:41:16;;;;;;;;;;;13.40;96.80;;;;;;8428095;28;19927;-70
2022/08/06 02:45:25;;;;;;;;;;;13.30;96.90;;;;;;8450030;28;19920;-70
2022/08/06 02:49:27;;;;;;;;;;;13.30;96.90;;;;;;8461393;28;19927;-70
2022/08/06 02:53:37;;;;;;;;;;;13.30;96.90;;;;;;8445821;28;19923;-70
2022/08/06 02:57:52;;;;;;;;;;;13.30;96.90;;;;;;8449660;28;19920;-70
2022/08/06 03:01:56;;;;;;;;;;;13.20;96.90;;;;;;8461602;28;19920;-70
2022/08/06 03:05:59;;;;;;;;;;;13.10;96.90;;;;;;8460764;28;19977;-70
2022/08/06 03:10:01;;;;;;;;;;;13.10;96.90;;;;;;8455354;28;19973;-70
2022/08/06 03:14:04;;;;;;;;;;;13.00;97.00;;;;;;8461701;28;19950;-70
2022/08/06 03:18:15;;;;;;;;;;;13.00;97.10;;;;;;8460282;28;19957;-70
2022/08/06 03:22:17;;;;;;;;;;;12.90;97.10;;;;;;8435553;28;20311;-70
2022/08/06 03:26:36;;;;;;;;;;;12.90;97.10;;;;;;8460783;28;20019;-70
2022/08/06 03:30:39;;;;;;;;;;;12.90;97.10;;;;;;8439001;28;19920;-70
2022/08/06 03:34:41;;;;;;;;;;;12.80;97.10;;;;;;8461006;28;19924;-70
2022/08/06 03:38:48;;;;;;;;;;;12.80;97.10;;;;;;8437505;28;19920;-70
2022/08/06 03:52:57;;;;;;;;;;;12.70;97.10;;;;;;8450450;28;20018;-70
2022/08/06 03:57:05;;;;;;;;;;;12.60;97.00;;;;;;8458787;28;19954;-70
2022/08/06 04:01:10;;;;;;;;;;;12.50;97.00;;;;;;8453710;28;19919;-70
2022/08/06 04:05:15;;;;;;;;;;;12.50;97.10;;;;;;8460828;28;19989;-70
2022/08/06 04:09:17;;;;;;;;;;;12.50;97.10;;;;;;8460870;28;20309;-70
2022/08/06 04:13:39;;;;;;;;;;;12.50;97.10;;;;;;8461259;28;19994;-70
2022/08/06 04:18:01;;;;;;;;;;;12.40;97.20;;;;;;8460005;28;19959;-70
2022/08/06 04:22:03;;;;;;;;;;;12.40;97.20;;;;;;8457693;28;19927;-70
2022/08/06 04:26:27;;;;;;;;;;;12.40;97.10;;;;;;8464755;28;19966;-70
2022/08/06 04:30:31;;;;;;;;;;;12.30;97.10;;;;;;8467218;28;20033;-70
2022/08/06 04:34:33;;;;;;;;;;;12.30;97.20;;;;;;8466957;28;19919;-70
2022/08/06 04:38:34;;;;;;;;;;;12.30;97.30;;;;;;8436466;28;20360;-70
2022/08/06 04:42:36;;;;;;;;;;;12.30;97.40;;;;;;8466793;28;19919;-70
2022/08/06 04:46:38;;;;;;;;;;;12.30;97.40;;;;;;8465209;28;20275;-70
2022/08/06 04:50:40;;;;;;;;;;;12.40;97.60;;;;;;8442523;28;20307;-70
2022/08/06 04:54:41;;;;;;;;;;;12.40;97.70;;;;;;8461080;28;19935;-70
2022/08/06 04:58:43;;;;;;;;;;;12.40;97.80;;;;;;8464767;28;20305;-70
2022/08/06 05:02:45;;;;;;;;;;;12.50;98.00;;;;;;8465578;28;20369;-70
2022/08/06 05:06:55;;;;;;;;;;;12.60;98.10;;;;;;8464618;28;19927;-70
2022/08/06 05:11:01;;;;;;;;;;;12.70;98.30;;;;;;8465849;28;19920;-70
2022/08/06 05:15:11;;;;;;;;;;;12.70;98.30;;;;;;8460252;28;19935;-70
2022/08/06 05:19:16;;;;;;;;;;;12.80;98.50;;;;;;8452211;28;19923;-70
2022/08/06 05:23:32;;;;;;;;;;;12.80;98.60;;;;;;8466204;28;19927;-70
2022/08/06 05:27:34;;;;;;;;;;;12.90;98.70;;;;;;8463987;28;19926;-70
2022/08/06 05:31:40;;;;;;;;;;;13.00;98.80;;;;;;8447470;28;19927;-70
2022/08/06 05:35:46;;;;;;;;;;;13.00;98.90;;;;;;8456431;28;19924;-70
2022/08/06 05:40:01;;;;;;;;;;;13.10;99.20;;;;;;8428245;28;19949;-70
2022/08/06 05:44:03;;;;;;;;;;;13.20;99.40;;;;;;8464516;28;19920;-70
2022/08/06 05:48:05;;;;;;;;;;;13.30;99.60;;;;;;8463038;28;20271;-70
2022/08/06 05:52:22;;;;;;;;;;;13.40;99.80;;;;;;8409603;28;19987;-70
2022/08/06 05:56:27;;;;;;;;;;;13.50;99.90;;;;;;8390314;28;20298;-70
2022/08/06 06:00:40;;;;;;;;;;;13.60;99.90;;;;;;8391855;28;19966;-70
2022/08/06 06:25:33;;;;;;;;;;;14.30;99.90;;;;;;8390101;28;19924;-70
2022/08/06 06:29:38;;;;;;;;;;;14.40;99.90;;;;;;8390034;28;19925;-70
2022/08/06 06:34:03;;;;;;;;;;;14.50;99.90;;;;;;8389126;28;19971;-70
2022/08/06 06:38:05;;;;;;;;;;;14.70;99.90;;;;;;8389012;28;20291;-70
2022/08/06 06:42:13;;;;;;;;;;;14.90;99.90;;;;;;8389905;28;19925;-70
2022/08/06 06:51:33;;;;;;;;;;;15.20;99.90;;;;;;8387137;28;19982;-70
2022/08/06 06:55:56;;;;;;;;;;;15.40;99.90;;;;;;8386436;28;20371;-70
2022/08/06 07:00:05;;;;;;;;;;;15.50;99.90;;;;;;8392733;28;19933;-70
2022/08/06 07:04:27;;;;;;;;;;;15.60;99.90;;;;;;8375879;28;20022;-70
2022/08/06 07:08:31;;;;;;;;;;;15.80;99.90;;;;;;8389189;28;19932;-70
2022/08/06 07:12:40;;;;;;;;;;;15.90;99.90;;;;;;8388458;28;19965;-70
2022/08/06 07:16:42;;;;;;;;;;;16.10;99.90;;;;;;8387208;28;20291;-70
2022/08/06 07:20:44;;;;;;;;;;;16.30;99.90;;;;;;8404719;27;19932;-70
2022/08/06 07:24:45;;;;;;;;;;;16.30;99.90;;;;;;8389274;28;19925;-70
2022/08/06 07:28:49;;;;;;;;;;;16.40;99.90;;;;;;8386147;28;20394;-70
2022/08/06 07:32:50;;;;;;;;;;;16.60;99.90;;;;;;8387552;28;19925;-70
2022/08/06 07:36:53;;;;;;;;;;;16.70;99.90;;;;;;8400876;28;20284;-70
2022/08/06 07:40:59;;;;;;;;;;;16.80;99.90;;;;;;8388597;28;20438;-70
2022/08/06 07:45:02;;;;;;;;;;;16.90;99.90;;;;;;8387811;28;19932;-70
2022/08/06 07:49:06;;;;;;;;;;;17.00;99.90;;;;;;8390027;28;19933;-70
2022/08/06 07:53:10;;;;;;;;;;;17.10;99.90;;;;;;8390224;28;20023;-70
2022/08/06 07:57:12;;;;;;;;;;;17.30;99.90;;;;;;8388109;28;19928;-70
2022/08/06 08:01:16;;;;;;;;;;;17.40;99.90;;;;;;8392617;28;19928;-70
2022/08/06 08:09:42;;;;;;;;;;;17.40;99.90;;;;;;8394158;28;20026;-70
2022/08/06 08:14:04;;;;;;;;;;;17.40;99.90;;;;;;8395195;28;19932;-70
2022/08/06 08:18:06;;;;;;;;;;;17.50;99.90;;;;;;8392648;28;19928;-70
2022/08/06 08:27:11;;;;;;;;;;;17.50;99.90;;;;;;8395096;28;19970;-69
2022/08/06 08:31:23;;;;;;;;;;;17.50;99.90;;;;;;8397525;28;19963;-70
2022/08/06 08:35:26;;;;;;;;;;;17.60;99.90;;;;;;8392980;28;19982;-70
2022/08/06 08:39:28;;;;;;;;;;;17.70;99.90;;;;;;8392308;28;20658;-70
2022/08/06 08:43:35;;;;;;;;;;;17.80;99.90;;;;;;8392458;28;19932;-70
2022/08/06 08:47:45;;;;;;;;;;;17.90;99.90;;;;;;8393232;28;19974;-70
2022/08/06 08:51:53;;;;;;;;;;;18.00;99.90;;;;;;8395555;28;19927;-70
2022/08/06 08:55:55;;;;;;;;;;;18.00;99.90;;;;;;8392921;28;19936;-70
2022/08/06 09:00:17;;;;;;;;;;;18.10;99.90;;;;;;8394992;28;19955;-70
2022/08/06 09:04:27;;;;;;;;;;;18.10;99.90;;;;;;8401383;28;19976;-70
2022/08/06 09:08:30;;;;;;;;;;;18.20;99.90;;;;;;8399216;28;19931;-70
2022/08/06 09:12:51;;;;;;;;;;;18.40;99.90;;;;;;8399507;28;19963;-70
2022/08/06 09:16:53;;;;;;;;;;;18.60;99.90;;;;;;8394654;28;19955;-70
2022/08/06 09:20:55;;;;;;;;;;;18.50;99.90;;;;;;8390843;28;19930;-70
2022/08/06 09:24:58;;;;;;;;;;;18.40;99.90;;;;;;8390043;28;20300;-70
2022/08/06 09:29:00;;;;;;;;;;;18.30;99.90;;;;;;8391664;28;19931;-70
2022/08/06 09:33:02;;;;;;;;;;;18.30;99.90;;;;;;8398266;28;19932;-70
2022/08/06 09:37:28;;;;;;;;;;;18.20;99.90;;;;;;8390801;28;19931;-70
2022/08/06 09:41:46;;;;;;;;;;;18.10;99.90;;;;;;8392706;28;19935;-70
2022/08/06 09:45:47;;;;;;;;;;;18.20;99.90;;;;;;8390216;28;19936;-70
2022/08/06 09:49:49;;;;;;;;;;;18.30;99.90;;;;;;8390169;28;20462;-70
2022/08/06 09:53:59;;;;;;;;;;;18.50;99.90;;;;;;8392807;28;20011;-70
2022/08/06 10:08:16;;;;;;;;;;;18.70;99.90;;;;;;8389246;28;19981;-70
2022/08/06 10:12:19;;;;;;;;;;;18.60;99.90;;;;;;8407121;27;19925;-70
2022/08/06 10:16:26;;;;;;;;;;;18.60;99.90;;;;;;8387423;28;19971;-70
2022/08/06 10:20:29;;;;;;;;;;;18.60;99.90;;;;;;8384556;28;19924;-70
2022/08/06 10:24:32;;;;;;;;;;;18.70;99.90;;;;;;8389471;28;19936;-70
2022/08/06 10:28:44;;;;;;;;;;;18.90;99.90;;;;;;8404873;27;19932;-70
2022/08/06 10:32:48;;;;;;;;;;;19.10;99.90;;;;;;8392171;28;24490;-70
2022/08/06 10:37:02;;;;;;;;;;;19.20;99.90;;;;;;8387261;28;19940;-70
2022/08/06 10:41:08;;;;;;;;;;;19.40;99.90;;;;;;8374286;28;19929;-70
2022/08/06 10:45:29;;;;;;;;;;;19.40;99.90;;;;;;8387354;28;19928;-70
2022/08/06 10:49:51;;;;;;;;;;;19.50;99.90;;;;;;8389266;28;19931;-70
2022/08/06 10:54:14;;;;;;;;;;;19.60;99.90;;;;;;8390598;28;20241;-70
2022/08/06 10:58:20;;;;;;;;;;;19.70;99.90;;;;;;8389397;28;19934;-70
2022/08/06 11:02:25;;;;;;;;;;;19.80;99.90;;;;;;8402511;28;19975;-70
2022/08/06 11:06:34;;;;;;;;;;;19.90;99.90;;;;;;8388974;28;20349;-70
2022/08/06 11:10:42;;;;;;;;;;;19.90;99.90;;;;;;8389896;28;19936;-70
2022/08/06 11:14:45;;;;;;;;;;;20.00;99.90;;;;;;8388248;28;19928;-69
2022/08/06 11:18:59;;;;;;;;;;;19.80;99.90;;;;;;8388106;28;24167;-70
2022/08/06 11:23:13;;;;;;;;;;;19.80;99.90;;;;;;8389053;28;19978;-70
2022/08/06 11:27:56;;;;;;;;;;;19.70;99.90;;;;;;8381302;28;20411;-70
2022/08/06 11:32:03;;;;;;;;;;;19.80;99.90;;;;;;8392314;28;19928;-70
2022/08/06 11:36:05;;;;;;;;;;;20.00;99.90;;;;;;8376838;28;20335;-70
2022/08/06 11:40:10;;;;;;;;;;;20.00;99.90;;;;;;8388884;28;19947;-70
2022/08/06 11:44:15;;;;;;;;;;;20.10;99.90;;;;;;8400577;28;19924;-70
2022/08/06 11:48:17;;;;;;;;;;;20.20;99.90;;;;;;8385929;28;19924;-70
2022/08/06 11:52:30;;;;;;;;;;;20.40;99.90;;;;;;8402039;28;19932;-70
2022/08/06 11:57:07;;;;;;;;;;;20.50;99.90;;;;;;8385800;28;20328;-70
2022/08/06 12:01:13;;;;;;;;;;;20.60;99.90;;;;;;8387850;28;19971;-70
2022/08/06 12:05:35;;;;;;;;;;;20.60;99.90;;;;;;8397186;28;19963;-70
2022/08/06 12:09:37;;;;;;;;;;;20.70;99.90;;;;;;8382307;28;19928;-70
2022/08/06 12:13:40;;;;;;;;;;;20.80;99.90;;;;;;8388142;28;19932;-69
2022/08/06 12:17:58;;;;;;;;;;;20.90;99.90;;;;;;8385797;28;19936;-70
2022/08/06 12:22:21;;;;;;;;;;;20.90;99.90;;;;;;8388514;28;20365;-70
2022/08/06 12:26:22;;;;;;;;;;;21.10;99.90;;;;;;8391584;28;19931;-70
2022/08/06 12:30:41;;;;;;;;;;;21.30;99.90;;;;;;8387383;28;19925;-70
2022/08/06 12:34:42;;;;;;;;;;;21.40;99.90;;;;;;8387734;28;19935;-70
2022/08/06 12:39:00;;;;;;;;;;;21.40;99.90;;;;;;8386983;28;19931;-70
2022/08/06 12:43:01;;;;;;;;;;;21.30;99.90;;;;;;8404276;28;20318;-69
2022/08/06 12:47:13;;;;;;;;;;;21.20;99.90;;;;;;8394278;28;19967;-70
2022/08/06 12:51:14;;;;;;;;;;;21.00;99.90;;;;;;8394072;28;19939;-70
2022/08/06 12:55:18;;;;;;;;;;;20.80;99.90;;;;;;8390782;28;19962;-70
2022/08/06 12:59:19;;;;;;;;;;;20.70;99.90;;;;;;8391342;28;19925;-70
2022/08/06 13:03:25;;;;;;;;;;;20.60;99.90;;;;;;8392801;28;19932;-70
2022/08/06 13:07:26;;;;;;;;;;;20.60;99.90;;;;;;8391688;28;19932;-70
2022/08/06 13:16:40;;;;;;;;;;;20.70;99.90;;;;;;8390979;28;19971;-70
2022/08/06 13:20:54;;;;;;;;;;;20.80;99.90;;;;;;8390293;28;20294;-70
2022/08/06 13:25:09;;;;;;;;;;;20.80;99.90;;;;;;8407701;27;19928;-70
2022/08/06 13:29:14;;;;;;;;;;;20.90;99.90;;;;;;8394097;28;19928;-70
2022/08/06 13:33:38;;;;;;;;;;;20.90;99.90;;;;;;8392735;28;19969;-70
2022/08/06 13:37:50;;;;;;;;;;;21.00;99.90;;;;;;8387609;28;19932;-70
2022/08/06 13:42:04;;;;;;;;;;;21.00;99.90;;;;;;8391072;28;20354;-70
2022/08/06 13:46:15;;;;;;;;;;;21.00;99.90;;;;;;8393070;28;19960;-70
2022/08/06 13:50:21;;;;;;;;;;;21.10;99.90;;;;;;8390163;28;20386;-70
2022/08/06 13:54:24;;;;;;;;;;;21.00;99.90;;;;;;8390199;28;19932;-70
2022/08/06 13:58:25;;;;;;;;;;;21.00;99.90;;;;;;8385633;28;19928;-70
2022/08/06 14:02:27;;;;;;;;;;;21.00;99.90;;;;;;8390985;28;19925;-70
2022/08/06 14:06:28;;;;;;;;;;;20.90;99.90;;;;;;8393994;28;19982;-70
2022/08/06 14:10:33;;;;;;;;;;;21.00;99.90;;;;;;8388868;28;20286;-70
2022/08/06 14:14:34;;;;;;;;;;;21.10;99.90;;;;;;8391114;28;20292;-70
2022/08/06 14:18:36;;;;;;;;;;;21.20;99.90;;;;;;8389201;28;19931;-69
2022/08/06 14:22:38;;;;;;;;;;;21.30;99.90;;;;;;8390169;28;19929;-70
2022/08/06 14:26:41;;;;;;;;;;;21.40;99.90;;;;;;8386244;28;19948;-70
2022/08/06 14:30:43;;;;;;;;;;;21.40;99.90;;;;;;8391245;28;19928;-70
2022/08/06 14:34:46;;;;;;;;;;;21.40;99.90;;;;;;8389428;28;19931;-70
2022/08/06 14:38:47;;;;;;;;;;;21.60;99.90;;;;;;8389059;28;19924;-70
2022/08/06 14:47:09;;;;;;;;;;;21.70;99.90;;;;;;8386483;28;20282;-70
2022/08/06 14:51:31;;;;;;;;;;;21.60;99.90;;;;;;8384405;28;19932;-70
2022/08/06 14:55:38;;;;;;;;;;;21.60;99.90;;;;;;8388366;28;19929;-70
2022/08/06 14:59:40;;;;;;;;;;;21.40;99.90;;;;;;8401721;27;20292;-70
2022/08/06 15:03:43;;;;;;;;;;;21.30;99.90;;;;;;8387221;28;19993;-70
2022/08/06 15:07:45;;;;;;;;;;;21.40;99.90;;;;;;8386294;28;20371;-70
2022/08/06 15:11:47;;;;;;;;;;;21.60;99.90;;;;;;8389649;28;19924;-70
2022/08/06 15:16:00;;;;;;;;;;;21.80;99.90;;;;;;8387488;28;20015;-70
2022/08/06 15:20:01;;;;;;;;;;;22.00;99.90;;;;;;8386841;28;19924;-70
2022/08/06 15:24:03;;;;;;;;;;;22.20;99.90;;;;;;8383425;28;19929;-70
2022/08/06 15:28:05;;;;;;;;;;;22.50;99.90;;;;;;8401284;28;19928;-70
2022/08/06 15:32:06;;;;;;;;;;;22.60;99.90;;;;;;8389703;28;20121;-70
2022/08/06 15:36:19;;;;;;;;;;;22.70;99.90;;;;;;8386504;28;19925;-70
2022/08/06 15:40:21;;;;;;;;;;;22.90;99.90;;;;;;8382154;28;20379;-70
2022/08/06 15:44:22;;;;;;;;;;;23.10;99.90;;;;;;8390117;28;20368;-70
2022/08/06 15:48:31;;;;;;;;;;;23.40;99.90;;;;;;8386758;28;24204;-70
2022/08/06 15:52:34;;;;;;;;;;;23.60;99.90;;;;;;8390253;28;19929;-70
2022/08/06 15:56:37;;;;;;;;;;;23.80;99.90;;;;;;8387476;28;19928;-70
2022/08/06 16:00:52;;;;;;;;;;;24.10;99.90;;;;;;8387952;28;19928;-71
2022/08/06 16:05:00;;;;;;;;;;;24.40;99.90;;;;;;8386969;28;20302;-70
2022/08/06 16:09:03;;;;;;;;;;;24.70;99.90;;;;;;8386353;28;20295;-70
2022/08/06 16:13:05;;;;;;;;;;;25.20;99.90;;;;;;8391025;28;19931;-70
2022/08/06 16:17:07;;;;;;;;;;;25.60;99.90;;;;;;8384977;28;19932;-70
2022/08/06 16:21:10;;;;;;;;;;;26.00;99.90;;;;;;8392164;28;19925;-71
2022/08/06 16:25:13;;;;;;;;;;;26.30;99.90;;;;;;8393952;28;19932;-70
2022/08/06 16:29:15;;;;;;;;;;;26.50;99.90;;;;;;8390718;28;19928;-71
2022/08/06 16:38:21;;;;;;;;;;;26.70;99.90;;;;;;8392999;28;19974;-70
2022/08/06 16:42:26;;;;;;;;;;;26.00;99.90;;;;;;8394367;28;20299;-70
2022/08/06 16:46:28;;;;;;;;;;;25.30;99.70;;;;;;8400207;28;20276;-70
2022/08/06 16:50:30;;;;;;;;;;;24.80;99.10;;;;;;8391512;28;20372;-71
2022/08/06 16:54:36;;;;;;;;;;;24.20;98.50;;;;;;8389527;28;19939;-70
2022/08/06 16:58:44;;;;;;;;;;;23.80;98.20;;;;;;8392920;28;20343;-71
2022/08/06 17:03:06;;;;;;;;;;;23.50;98.00;;;;;;8394682;28;20371;-70
2022/08/06 17:07:10;;;;;;;;;;;23.20;97.80;;;;;;8370801;28;19975;-71
2022/08/06 17:11:12;;;;;;;;;;;23.00;97.60;;;;;;8390951;28;19932;-71
2022/08/06 17:15:33;;;;;;;;;;;22.80;97.50;;;;;;8387287;28;19974;-70
2022/08/06 17:19:37;;;;;;;;;;;22.70;97.50;;;;;;8391627;28;19973;-70
2022/08/06 17:23:42;;;;;;;;;;;22.60;97.40;;;;;;8392672;28;19928;-70
2022/08/06 17:27:43;;;;;;;;;;;22.50;97.40;;;;;;8391276;28;19962;-70
2022/08/06 17:31:58;;;;;;;;;;;22.40;97.30;;;;;;8392432;28;19928;-70
2022/08/06 17:35:59;;;;;;;;;;;22.40;97.30;;;;;;8389806;28;20058;-71
2022/08/06 17:40:25;;;;;;;;;;;22.30;97.30;;;;;;8391157;28;19978;-71
2022/08/06 17:55:04;;;;;;;;;;;22.30;97.40;;;;;;8385986;28;20062;-70
2022/08/06 18:14:36;;;;;;;;;;;22.00;97.30;;;;;;8386667;28;19931;-70
2022/08/06 18:18:38;;;;;;;;;;;21.90;97.20;;;;;;8382492;28;19928;-70
2022/08/06 18:22:41;;;;;;;;;;;21.90;97.30;;;;;;8386583;28;19931;-70
2022/08/06 18:26:43;;;;;;;;;;;21.80;97.30;;;;;;8385576;28;20318;-70
2022/08/06 18:30:45;;;;;;;;;;;21.70;97.30;;;;;;8385949;28;19935;-70
2022/08/06 18:34:48;;;;;;;;;;;21.60;97.30;;;;;;8384250;28;20335;-70
2022/08/06 18:38:53;;;;;;;;;;;21.60;97.30;;;;;;8378369;28;19971;-70
2022/08/06 18:42:56;;;;;;;;;;;21.60;97.40;;;;;;8384579;28;19924;-70
2022/08/06 18:46:58;;;;;;;;;;;21.50;97.40;;;;;;8385359;28;19924;-70
2022/08/06 18:51:05;;;;;;;;;;;21.40;97.40;;;;;;8386195;28;20027;-70
2022/08/06 18:55:07;;;;;;;;;;;21.30;97.40;;;;;;8400883;28;19928;-70
2022/08/06 18:59:18;;;;;;;;;;;21.30;97.40;;;;;;8389436;28;19929;-70
2022/08/06 19:03:24;;;;;;;;;;;21.20;97.40;;;;;;8390564;28;19928;-70
2022/08/06 19:07:46;;;;;;;;;;;21.20;97.50;;;;;;8389225;28;19940;-70
2022/08/06 19:11:50;;;;;;;;;;;21.10;97.50;;;;;;8389067;28;20406;-70
2022/08/06 19:15:52;;;;;;;;;;;21.00;97.50;;;;;;8389345;28;20027;-70
2022/08/06 19:19:54;;;;;;;;;;;21.00;97.50;;;;;;8390553;28;19954;-70
2022/08/06 19:24:16;;;;;;;;;;;20.90;97.50;;;;;;8388391;28;20078;-70
2022/08/06 19:28:36;;;;;;;;;;;20.80;97.60;;;;;;8388128;28;19935;-70
2022/08/06 19:32:50;;;;;;;;;;;20.80;97.60;;;;;;8394584;28;19925;-70
2022/08/06 19:36:53;;;;;;;;;;;20.70;97.60;;;;;;8386984;28;20319;-70
2022/08/06 19:40:54;;;;;;;;;;;20.60;97.60;;;;;;8390272;28;20306;-70
2022/08/06 19:44:56;;;;;;;;;;;20.60;97.70;;;;;;8385957;28;19940;-70
2022/08/06 19:49:05;;;;;;;;;;;20.50;97.70;;;;;;8388951;28;19958;-70
2022/08/06 19:53:07;;;;;;;;;;;20.40;97.70;;;;;;8387792;28;20019;-70
2022/08/06 19:57:09;;;;;;;;;;;20.30;97.80;;;;;;8391141;28;19935;-70
2022/08/06 20:01:14;;;;;;;;;;;20.30;97.90;;;;;;8396453;28;19928;-70
2022/08/06 20:05:33;;;;;;;;;;;20.20;97.90;;;;;;8406459;28;20405;-70
2022/08/06 20:20:02;;;;;;;;;;;19.80;98.00;;;;;;8394391;28;19926;-70
2022/08/06 20:24:08;;;;;;;;;;;19.70;98.00;;;;;;8396730;28;20274;-70
2022/08/06 20:28:09;;;;;;;;;;;19.60;98.10;;;;;;8392469;28;19932;-70
2022/08/06 20:32:33;;;;;;;;;;;19.50;98.10;;;;;;8393946;28;20364;-70
2022/08/06 20:36:35;;;;;;;;;;;19.30;98.10;;;;;;8408672;27;19929;-70
2022/08/06 20:40:36;;;;;;;;;;;19.20;98.20;;;;;;8393033;28;19935;-70
2022/08/06 20:44:58;;;;;;;;;;;19.10;98.30;;;;;;8393310;28;20359;-70
2022/08/06 20:49:00;;;;;;;;;;;19.00;98.40;;;;;;8392008;28;20255;-70
2022/08/06 20:53:02;;;;;;;;;;;18.90;98.40;;;;;;8392523;28;19932;-70
2022/08/06 20:57:04;;;;;;;;;;;18.80;98.40;;;;;;8408867;27;19932;-70
2022/08/06 21:01:05;;;;;;;;;;;18.70;98.40;;;;;;8396560;28;19924;-70
2022/08/06 21:05:14;;;;;;;;;;;18.60;98.50;;;;;;8445330;28;19928;-70
2022/08/06 21:09:19;;;;;;;;;;;18.60;98.50;;;;;;8444608;28;19934;-70
2022/08/06 21:13:21;;;;;;;;;;;18.50;98.50;;;;;;8461640;28;19931;-70
2022/08/06 21:17:36;;;;;;;;;;;18.50;98.60;;;;;;8453813;28;19924;-70
2022/08/06 21:27:03;;;;;;;;;;;18.40;98.70;;;;;;8452717;28;20010;-70
2022/08/06 21:31:06;;;;;;;;;;;18.30;98.70;;;;;;8465100;28;19934;-70
2022/08/06 21:35:08;;;;;;;;;;;18.20;98.70;;;;;;8463555;28;20293;-70
2022/08/06 21:39:10;;;;;;;;;;;18.10;98.80;;;;;;8430083;28;19931;-70
2022/08/06 21:43:13;;;;;;;;;;;18.00;98.80;;;;;;8459832;28;19927;-70
2022/08/06 21:47:15;;;;;;;;;;;17.90;98.90;;;;;;8463652;28;19923;-70
2022/08/06 21:51:21;;;;;;;;;;;17.90;98.90;;;;;;8463969;28;20304;-70
2022/08/06 21:55:23;;;;;;;;;;;17.80;99.00;;;;;;8444412;28;19981;-70
2022/08/06 21:59:45;;;;;;;;;;;17.70;99.00;;;;;;8451970;28;19931;-70
2022/08/06 22:03:54;;;;;;;;;;;17.70;99.00;;;;;;8461946;28;20390;-70
2022/08/06 22:08:15;;;;;;;;;;;17.60;99.00;;;;;;8461816;28;19924;-70
2022/08/06 22:12:19;;;;;;;;;;;17.60;98.90;;;;;;8429591;28;19928;-70
2022/08/06 22:27:18;;;;;;;;;;;17.40;99.00;;;;;;8460425;28;19977;-70
2022/08/06 22:31:19;;;;;;;;;;;17.40;99.10;;;;;;8426703;28;19930;-70
2022/08/06 22:35:21;;;;;;;;;;;17.30;99.10;;;;;;8457910;28;19931;-70
2022/08/06 22:39:23;;;;;;;;;;;17.30;99.20;;;;;;8435300;28;19923;-70
2022/08/06 22:43:25;;;;;;;;;;;17.20;99.20;;;;;;8458668;28;19928;-70
2022/08/06 22:47:47;;;;;;;;;;;17.10;99.30;;;;;;8460321;28;19924;-70
2022/08/06 22:51:49;;;;;;;;;;;17.00;99.30;;;;;;8459954;28;19923;-70
2022/08/06 22:55:52;;;;;;;;;;;17.00;99.40;;;;;;8397012;28;1774824;-70
2022/08/06 22:59:53;;;;;;;;;;;16.90;99.40;;;;;;8461691;28;19924;-70
2022/08/06 23:04:13;;;;;;;;;;;16.90;99.40;;;;;;8461054;28;20291;-70
2022/08/06 23:08:15;;;;;;;;;;;16.80;99.50;;;;;;8461529;28;20305;-70
2022/08/06 23:42:38;;;;;;;;;;;16.40;99.50;;;;;;8447171;28;20361;-70
2022/08/06 23:46:40;;;;;;;;;;;16.30;99.50;;;;;;8460501;28;19924;-70
2022/08/06 23:50:42;;;;;;;;;;;16.20;99.50;;;;;;8441034;28;19931;-70
2022/08/06 23:54:54;;;;;;;;;;;16.20;99.50;;;;;;8460258;28;20358;-70
2022/08/06 23:58:55;;;;;;;;;;;16.10;99.60;;;;;;8461010;28;19928;-70
